sensor_id;sensor_type;location;lat;lon;timestamp;P1;durP1;ratioP1;P2;durP2;ratioP2
19113;SDS011;9689;51.052;13.772;2022-12-16T00:01:12;91.28;;;33.85;;
19113;SDS011;9689;51.052;13.772;2022-12-16T00:06:15;80.75;;;32.00;;
19113;SDS011;9689;51.052;13.772;2022-12-16T00:11:18;92.25;;;33.65;;
19113;SDS011;9689;51.052;13.772;2022-12-16T00:16:19;84.50;;;33.47;;
19113;SDS011;9689;51.052;13.772;2022-12-16T00:21:20;89.55;;;31.77;;
19113;SDS011;9689;51.052;13.772;2022-12-16T00:26:28;90.78;;;32.42;;
19113;SDS011;9689;51.052;13.772;2022-12-16T00:31:29;91.43;;;33.88;;
19113;SDS011;9689;51.052;13.772;2022-12-16T00:36:31;92.95;;;33.63;;
19113;SDS011;9689;51.052;13.772;2022-12-16T00:41:33;88.05;;;33.78;;
19113;SDS011;9689;51.052;13.772;2022-12-16T00:46:35;92.03;;;33.75;;
19113;SDS011;9689;51.052;13.772;2022-12-16T00:51:35;97.93;;;36.47;;
19113;SDS011;9689;51.052;13.772;2022-12-16T00:56:38;99.53;;;36.70;;
19113;SDS011;9689;51.052;13.772;2022-12-16T01:01:38;109.85;;;36.75;;
19113;SDS011;9689;51.052;13.772;2022-12-16T01:06:40;92.38;;;34.17;;
19113;SDS011;9689;51.052;13.772;2022-12-16T01:11:42;99.03;;;35.35;;
19113;SDS011;9689;51.052;13.772;2022-12-16T01:16:42;96.25;;;35.53;;
19113;SDS011;9689;51.052;13.772;2022-12-16T01:21:43;92.47;;;34.63;;
19113;SDS011;9689;51.052;13.772;2022-12-16T01:26:45;105.38;;;36.67;;
19113;SDS011;9689;51.052;13.772;2022-12-16T01:31:46;95.45;;;35.78;;
19113;SDS011;9689;51.052;13.772;2022-12-16T01:36:47;91.82;;;35.30;;
19113;SDS011;9689;51.052;13.772;2022-12-16T01:41:50;98.82;;;35.72;;
19113;SDS011;9689;51.052;13.772;2022-12-16T01:46:52;106.28;;;37.28;;
19113;SDS011;9689;51.052;13.772;2022-12-16T01:51:55;94.88;;;34.67;;
19113;SDS011;9689;51.052;13.772;2022-12-16T01:57:02;96.40;;;35.38;;
19113;SDS011;9689;51.052;13.772;2022-12-16T02:02:06;99.10;;;37.00;;
19113;SDS011;9689;51.052;13.772;2022-12-16T02:07:07;98.82;;;34.85;;
19113;SDS011;9689;51.052;13.772;2022-12-16T02:12:12;95.72;;;36.25;;
19113;SDS011;9689;51.052;13.772;2022-12-16T02:17:26;101.97;;;35.28;;
19113;SDS011;9689;51.052;13.772;2022-12-16T02:22:37;99.05;;;35.13;;
19113;SDS011;9689;51.052;13.772;2022-12-16T02:28:02;86.38;;;32.67;;
19113;SDS011;9689;51.052;13.772;2022-12-16T02:33:16;93.63;;;35.08;;
19113;SDS011;9689;51.052;13.772;2022-12-16T02:38:33;91.03;;;35.42;;
19113;SDS011;9689;51.052;13.772;2022-12-16T02:43:47;90.60;;;34.80;;
19113;SDS011;9689;51.052;13.772;2022-12-16T02:48:55;88.85;;;35.55;;
19113;SDS011;9689;51.052;13.772;2022-12-16T02:53:56;93.97;;;37.15;;
19113;SDS011;9689;51.052;13.772;2022-12-16T02:59:00;100.95;;;35.58;;
19113;SDS011;9689;51.052;13.772;2022-12-16T03:04:15;100.45;;;36.63;;
19113;SDS011;9689;51.052;13.772;2022-12-16T03:09:21;86.93;;;33.75;;
19113;SDS011;9689;51.052;13.772;2022-12-16T03:14:26;96.65;;;36.22;;
19113;SDS011;9689;51.052;13.772;2022-12-16T03:19:32;84.60;;;32.22;;
19113;SDS011;9689;51.052;13.772;2022-12-16T03:24:35;88.55;;;34.38;;
19113;SDS011;9689;51.052;13.772;2022-12-16T03:29:39;88.65;;;31.15;;
19113;SDS011;9689;51.052;13.772;2022-12-16T03:34:46;92.70;;;32.20;;
19113;SDS011;9689;51.052;13.772;2022-12-16T03:39:51;88.53;;;33.25;;
19113;SDS011;9689;51.052;13.772;2022-12-16T03:44:55;80.82;;;31.45;;
19113;SDS011;9689;51.052;13.772;2022-12-16T03:49:57;88.72;;;32.78;;
19113;SDS011;9689;51.052;13.772;2022-12-16T03:54:58;80.57;;;32.13;;
19113;SDS011;9689;51.052;13.772;2022-12-16T03:59:59;80.93;;;31.02;;
19113;SDS011;9689;51.052;13.772;2022-12-16T04:05:11;81.20;;;31.17;;
19113;SDS011;9689;51.052;13.772;2022-12-16T04:10:13;77.82;;;28.55;;
19113;SDS011;9689;51.052;13.772;2022-12-16T04:15:13;82.43;;;30.05;;
19113;SDS011;9689;51.052;13.772;2022-12-16T04:20:33;69.68;;;27.65;;
19113;SDS011;9689;51.052;13.772;2022-12-16T04:25:54;66.88;;;28.25;;
19113;SDS011;9689;51.052;13.772;2022-12-16T04:30:55;75.05;;;28.20;;
19113;SDS011;9689;51.052;13.772;2022-12-16T04:35:58;74.55;;;27.67;;
19113;SDS011;9689;51.052;13.772;2022-12-16T04:41:16;70.28;;;27.00;;
19113;SDS011;9689;51.052;13.772;2022-12-16T04:46:36;72.47;;;27.27;;
19113;SDS011;9689;51.052;13.772;2022-12-16T04:51:55;72.38;;;27.10;;
19113;SDS011;9689;51.052;13.772;2022-12-16T04:57:13;65.45;;;27.65;;
19113;SDS011;9689;51.052;13.772;2022-12-16T05:02:32;66.70;;;26.02;;
19113;SDS011;9689;51.052;13.772;2022-12-16T05:07:52;67.38;;;25.77;;
19113;SDS011;9689;51.052;13.772;2022-12-16T05:13:10;64.75;;;25.10;;
19113;SDS011;9689;51.052;13.772;2022-12-16T05:18:29;69.43;;;26.17;;
19113;SDS011;9689;51.052;13.772;2022-12-16T05:23:57;58.22;;;22.95;;
19113;SDS011;9689;51.052;13.772;2022-12-16T05:29:15;60.65;;;25.10;;
19113;SDS011;9689;51.052;13.772;2022-12-16T05:34:34;63.42;;;23.38;;
19113;SDS011;9689;51.052;13.772;2022-12-16T05:39:53;66.72;;;24.90;;
19113;SDS011;9689;51.052;13.772;2022-12-16T05:45:12;61.88;;;24.88;;
19113;SDS011;9689;51.052;13.772;2022-12-16T05:50:30;60.28;;;24.17;;
19113;SDS011;9689;51.052;13.772;2022-12-16T05:55:50;61.85;;;24.48;;
19113;SDS011;9689;51.052;13.772;2022-12-16T06:01:09;63.80;;;24.90;;
19113;SDS011;9689;51.052;13.772;2022-12-16T06:06:27;60.25;;;23.33;;
19113;SDS011;9689;51.052;13.772;2022-12-16T06:11:47;62.20;;;22.50;;
19113;SDS011;9689;51.052;13.772;2022-12-16T06:17:05;58.35;;;23.27;;
19113;SDS011;9689;51.052;13.772;2022-12-16T06:22:24;67.07;;;25.08;;
19113;SDS011;9689;51.052;13.772;2022-12-16T06:27:44;56.85;;;22.90;;
19113;SDS011;9689;51.052;13.772;2022-12-16T06:33:07;61.22;;;23.42;;
19113;SDS011;9689;51.052;13.772;2022-12-16T06:38:25;53.53;;;21.83;;
19113;SDS011;9689;51.052;13.772;2022-12-16T06:43:45;59.40;;;24.25;;
19113;SDS011;9689;51.052;13.772;2022-12-16T06:49:03;66.25;;;25.00;;
19113;SDS011;9689;51.052;13.772;2022-12-16T06:54:23;58.67;;;24.10;;
19113;SDS011;9689;51.052;13.772;2022-12-16T06:59:42;57.35;;;23.13;;
19113;SDS011;9689;51.052;13.772;2022-12-16T07:05:00;61.83;;;25.30;;
19113;SDS011;9689;51.052;13.772;2022-12-16T07:10:19;74.30;;;28.02;;
19113;SDS011;9689;51.052;13.772;2022-12-16T07:15:39;79.80;;;28.63;;
19113;SDS011;9689;51.052;13.772;2022-12-16T07:20:57;72.55;;;27.73;;
19113;SDS011;9689;51.052;13.772;2022-12-16T07:26:15;69.93;;;27.42;;
19113;SDS011;9689;51.052;13.772;2022-12-16T07:31:35;73.25;;;27.85;;
19113;SDS011;9689;51.052;13.772;2022-12-16T07:36:53;69.22;;;27.13;;
19113;SDS011;9689;51.052;13.772;2022-12-16T07:42:11;77.82;;;29.77;;
19113;SDS011;9689;51.052;13.772;2022-12-16T07:47:31;73.18;;;27.55;;
19113;SDS011;9689;51.052;13.772;2022-12-16T07:52:53;80.80;;;30.83;;
19113;SDS011;9689;51.052;13.772;2022-12-16T07:58:12;80.50;;;30.90;;
19113;SDS011;9689;51.052;13.772;2022-12-16T08:03:32;82.50;;;32.58;;
19113;SDS011;9689;51.052;13.772;2022-12-16T08:09:00;94.57;;;33.60;;
19113;SDS011;9689;51.052;13.772;2022-12-16T08:14:18;88.57;;;34.58;;
19113;SDS011;9689;51.052;13.772;2022-12-16T08:19:38;92.57;;;37.00;;
19113;SDS011;9689;51.052;13.772;2022-12-16T08:24:56;96.97;;;35.45;;
19113;SDS011;9689;51.052;13.772;2022-12-16T08:30:15;111.40;;;35.63;;
19113;SDS011;9689;51.052;13.772;2022-12-16T08:35:34;108.88;;;40.85;;
19113;SDS011;9689;51.052;13.772;2022-12-16T08:40:53;110.50;;;40.25;;
19113;SDS011;9689;51.052;13.772;2022-12-16T08:46:12;104.78;;;40.72;;
19113;SDS011;9689;51.052;13.772;2022-12-16T08:51:31;115.30;;;40.13;;
19113;SDS011;9689;51.052;13.772;2022-12-16T08:56:50;117.88;;;42.25;;
19113;SDS011;9689;51.052;13.772;2022-12-16T09:02:08;118.53;;;44.60;;
19113;SDS011;9689;51.052;13.772;2022-12-16T09:07:28;120.35;;;42.80;;
19113;SDS011;9689;51.052;13.772;2022-12-16T09:12:47;111.60;;;41.75;;
19113;SDS011;9689;51.052;13.772;2022-12-16T09:18:17;121.57;;;41.85;;
19113;SDS011;9689;51.052;13.772;2022-12-16T09:23:36;112.53;;;41.15;;
19113;SDS011;9689;51.052;13.772;2022-12-16T09:28:55;120.28;;;41.08;;
19113;SDS011;9689;51.052;13.772;2022-12-16T09:34:13;108.63;;;39.40;;
19113;SDS011;9689;51.052;13.772;2022-12-16T09:39:33;102.88;;;39.17;;
19113;SDS011;9689;51.052;13.772;2022-12-16T09:44:54;100.53;;;35.83;;
19113;SDS011;9689;51.052;13.772;2022-12-16T09:50:22;101.93;;;36.80;;
19113;SDS011;9689;51.052;13.772;2022-12-16T09:55:44;101.72;;;36.70;;
19113;SDS011;9689;51.052;13.772;2022-12-16T10:01:03;86.20;;;35.20;;
19113;SDS011;9689;51.052;13.772;2022-12-16T10:06:27;92.30;;;34.85;;
19113;SDS011;9689;51.052;13.772;2022-12-16T10:11:54;80.05;;;32.53;;
19113;SDS011;9689;51.052;13.772;2022-12-16T10:17:21;83.32;;;32.97;;
19113;SDS011;9689;51.052;13.772;2022-12-16T10:22:43;90.07;;;32.80;;
19113;SDS011;9689;51.052;13.772;2022-12-16T10:28:12;79.28;;;31.30;;
19113;SDS011;9689;51.052;13.772;2022-12-16T10:33:33;86.55;;;32.63;;
19113;SDS011;9689;51.052;13.772;2022-12-16T10:38:52;83.07;;;32.20;;
19113;SDS011;9689;51.052;13.772;2022-12-16T10:44:21;92.07;;;34.10;;
19113;SDS011;9689;51.052;13.772;2022-12-16T10:49:42;82.97;;;32.00;;
19113;SDS011;9689;51.052;13.772;2022-12-16T10:55:02;84.90;;;34.22;;
19113;SDS011;9689;51.052;13.772;2022-12-16T11:00:39;91.68;;;33.10;;
19113;SDS011;9689;51.052;13.772;2022-12-16T11:05:59;90.13;;;33.95;;
19113;SDS011;9689;51.052;13.772;2022-12-16T11:11:20;80.03;;;31.98;;
19113;SDS011;9689;51.052;13.772;2022-12-16T11:16:41;86.55;;;32.95;;
19113;SDS011;9689;51.052;13.772;2022-12-16T11:22:04;91.97;;;34.55;;
19113;SDS011;9689;51.052;13.772;2022-12-16T11:27:24;86.45;;;33.67;;
19113;SDS011;9689;51.052;13.772;2022-12-16T11:32:45;89.05;;;34.35;;
19113;SDS011;9689;51.052;13.772;2022-12-16T11:38:08;78.50;;;32.15;;
19113;SDS011;9689;51.052;13.772;2022-12-16T11:43:35;93.45;;;35.03;;
19113;SDS011;9689;51.052;13.772;2022-12-16T11:49:03;98.15;;;36.40;;
19113;SDS011;9689;51.052;13.772;2022-12-16T11:54:32;87.30;;;33.30;;
19113;SDS011;9689;51.052;13.772;2022-12-16T11:59:55;86.82;;;34.08;;
19113;SDS011;9689;51.052;13.772;2022-12-16T12:05:20;89.55;;;34.83;;
19113;SDS011;9689;51.052;13.772;2022-12-16T12:10:54;95.38;;;36.00;;
19113;SDS011;9689;51.052;13.772;2022-12-16T12:16:23;99.85;;;35.78;;
19113;SDS011;9689;51.052;13.772;2022-12-16T12:21:50;94.03;;;35.35;;
19113;SDS011;9689;51.052;13.772;2022-12-16T12:27:14;91.25;;;34.95;;
19113;SDS011;9689;51.052;13.772;2022-12-16T12:32:44;89.32;;;34.53;;
19113;SDS011;9689;51.052;13.772;2022-12-16T12:38:14;97.47;;;35.95;;
19113;SDS011;9689;51.052;13.772;2022-12-16T12:43:39;98.70;;;35.08;;
19113;SDS011;9689;51.052;13.772;2022-12-16T12:49:07;106.78;;;37.28;;
19113;SDS011;9689;51.052;13.772;2022-12-16T12:54:32;86.55;;;34.42;;
19113;SDS011;9689;51.052;13.772;2022-12-16T13:00:00;84.53;;;34.10;;
19113;SDS011;9689;51.052;13.772;2022-12-16T13:05:21;87.10;;;34.22;;
19113;SDS011;9689;51.052;13.772;2022-12-16T13:10:43;87.00;;;34.38;;
19113;SDS011;9689;51.052;13.772;2022-12-16T13:16:02;102.35;;;37.42;;
19113;SDS011;9689;51.052;13.772;2022-12-16T13:21:41;93.10;;;35.92;;
19113;SDS011;9689;51.052;13.772;2022-12-16T13:27:02;91.32;;;36.28;;
19113;SDS011;9689;51.052;13.772;2022-12-16T13:32:21;100.85;;;37.15;;
19113;SDS011;9689;51.052;13.772;2022-12-16T13:37:41;91.05;;;34.72;;
19113;SDS011;9689;51.052;13.772;2022-12-16T13:43:16;91.78;;;34.88;;
19113;SDS011;9689;51.052;13.772;2022-12-16T13:55:09;89.65;;;36.38;;
19113;SDS011;9689;51.052;13.772;2022-12-16T14:00:31;87.65;;;34.35;;
19113;SDS011;9689;51.052;13.772;2022-12-16T14:05:53;108.47;;;39.15;;
19113;SDS011;9689;51.052;13.772;2022-12-16T14:11:15;105.13;;;38.88;;
19113;SDS011;9689;51.052;13.772;2022-12-16T14:16:42;94.60;;;36.72;;
19113;SDS011;9689;51.052;13.772;2022-12-16T14:22:11;92.22;;;34.85;;
19113;SDS011;9689;51.052;13.772;2022-12-16T14:27:41;98.68;;;36.42;;
19113;SDS011;9689;51.052;13.772;2022-12-16T14:33:14;99.78;;;36.95;;
19113;SDS011;9689;51.052;13.772;2022-12-16T14:38:45;98.15;;;38.28;;
19113;SDS011;9689;51.052;13.772;2022-12-16T14:44:04;104.90;;;38.83;;
19113;SDS011;9689;51.052;13.772;2022-12-16T14:49:35;97.13;;;37.80;;
19113;SDS011;9689;51.052;13.772;2022-12-16T14:55:09;98.00;;;37.25;;
19113;SDS011;9689;51.052;13.772;2022-12-16T15:00:31;95.22;;;37.22;;
19113;SDS011;9689;51.052;13.772;2022-12-16T15:05:54;92.57;;;36.45;;
19113;SDS011;9689;51.052;13.772;2022-12-16T15:11:13;97.85;;;38.35;;
19113;SDS011;9689;51.052;13.772;2022-12-16T15:16:35;97.07;;;36.60;;
19113;SDS011;9689;51.052;13.772;2022-12-16T15:22:00;102.30;;;39.05;;
19113;SDS011;9689;51.052;13.772;2022-12-16T15:27:21;100.03;;;38.38;;
19113;SDS011;9689;51.052;13.772;2022-12-16T15:32:41;97.10;;;37.60;;
19113;SDS011;9689;51.052;13.772;2022-12-16T15:38:19;104.18;;;38.90;;
19113;SDS011;9689;51.052;13.772;2022-12-16T15:43:43;111.25;;;39.97;;
19113;SDS011;9689;51.052;13.772;2022-12-16T15:49:03;101.22;;;39.35;;
19113;SDS011;9689;51.052;13.772;2022-12-16T15:54:23;96.85;;;37.85;;
19113;SDS011;9689;51.052;13.772;2022-12-16T15:59:51;106.88;;;38.40;;
19113;SDS011;9689;51.052;13.772;2022-12-16T16:05:13;104.63;;;39.17;;
19113;SDS011;9689;51.052;13.772;2022-12-16T16:10:36;99.05;;;38.95;;
19113;SDS011;9689;51.052;13.772;2022-12-16T16:15:55;105.13;;;37.63;;
19113;SDS011;9689;51.052;13.772;2022-12-16T16:21:13;100.10;;;39.75;;
19113;SDS011;9689;51.052;13.772;2022-12-16T16:26:33;104.45;;;37.45;;
19113;SDS011;9689;51.052;13.772;2022-12-16T16:31:51;102.05;;;38.97;;
19113;SDS011;9689;51.052;13.772;2022-12-16T16:37:11;103.20;;;38.70;;
19113;SDS011;9689;51.052;13.772;2022-12-16T16:42:34;100.72;;;38.20;;
19113;SDS011;9689;51.052;13.772;2022-12-16T16:47:52;99.07;;;38.58;;
19113;SDS011;9689;51.052;13.772;2022-12-16T16:53:18;107.25;;;39.28;;
19113;SDS011;9689;51.052;13.772;2022-12-16T16:58:38;103.25;;;39.92;;
19113;SDS011;9689;51.052;13.772;2022-12-16T17:03:56;105.55;;;38.38;;
19113;SDS011;9689;51.052;13.772;2022-12-16T17:09:15;104.63;;;39.10;;
19113;SDS011;9689;51.052;13.772;2022-12-16T17:14:34;104.80;;;38.58;;
19113;SDS011;9689;51.052;13.772;2022-12-16T17:19:52;104.20;;;40.13;;
19113;SDS011;9689;51.052;13.772;2022-12-16T17:25:11;107.43;;;40.35;;
19113;SDS011;9689;51.052;13.772;2022-12-16T17:30:31;95.78;;;38.40;;
19113;SDS011;9689;51.052;13.772;2022-12-16T17:35:50;102.13;;;38.55;;
19113;SDS011;9689;51.052;13.772;2022-12-16T17:41:09;104.40;;;39.25;;
19113;SDS011;9689;51.052;13.772;2022-12-16T17:46:28;106.68;;;39.63;;
19113;SDS011;9689;51.052;13.772;2022-12-16T17:51:47;106.97;;;40.33;;
19113;SDS011;9689;51.052;13.772;2022-12-16T17:57:05;104.43;;;37.97;;
19113;SDS011;9689;51.052;13.772;2022-12-16T18:02:25;107.35;;;40.63;;
19113;SDS011;9689;51.052;13.772;2022-12-16T18:07:44;113.38;;;40.72;;
19113;SDS011;9689;51.052;13.772;2022-12-16T18:13:02;98.78;;;38.17;;
19113;SDS011;9689;51.052;13.772;2022-12-16T18:18:33;104.85;;;40.83;;
19113;SDS011;9689;51.052;13.772;2022-12-16T18:23:54;107.75;;;38.85;;
19113;SDS011;9689;51.052;13.772;2022-12-16T18:29:15;103.43;;;39.90;;
19113;SDS011;9689;51.052;13.772;2022-12-16T18:34:34;108.15;;;39.22;;
19113;SDS011;9689;51.052;13.772;2022-12-16T18:39:53;104.22;;;40.25;;
19113;SDS011;9689;51.052;13.772;2022-12-16T18:45:11;103.63;;;40.55;;
19113;SDS011;9689;51.052;13.772;2022-12-16T18:50:31;103.65;;;40.35;;
19113;SDS011;9689;51.052;13.772;2022-12-16T18:55:57;97.05;;;38.58;;
19113;SDS011;9689;51.052;13.772;2022-12-16T19:01:17;97.85;;;38.63;;
19113;SDS011;9689;51.052;13.772;2022-12-16T19:06:37;101.88;;;39.15;;
19113;SDS011;9689;51.052;13.772;2022-12-16T19:11:55;104.53;;;40.80;;
19113;SDS011;9689;51.052;13.772;2022-12-16T19:17:14;100.78;;;38.53;;
19113;SDS011;9689;51.052;13.772;2022-12-16T19:22:33;99.85;;;40.83;;
19113;SDS011;9689;51.052;13.772;2022-12-16T19:27:54;106.40;;;39.67;;
19113;SDS011;9689;51.052;13.772;2022-12-16T19:33:12;105.13;;;39.60;;
19113;SDS011;9689;51.052;13.772;2022-12-16T19:38:32;103.75;;;39.60;;
19113;SDS011;9689;51.052;13.772;2022-12-16T19:43:54;95.82;;;39.67;;
19113;SDS011;9689;51.052;13.772;2022-12-16T19:49:12;110.97;;;42.05;;
19113;SDS011;9689;51.052;13.772;2022-12-16T19:54:32;100.85;;;41.10;;
19113;SDS011;9689;51.052;13.772;2022-12-16T19:59:50;94.05;;;37.58;;
19113;SDS011;9689;51.052;13.772;2022-12-16T20:05:11;95.63;;;39.25;;
19113;SDS011;9689;51.052;13.772;2022-12-16T20:10:31;99.88;;;38.30;;
19113;SDS011;9689;51.052;13.772;2022-12-16T20:15:50;101.88;;;39.47;;
19113;SDS011;9689;51.052;13.772;2022-12-16T20:21:08;105.72;;;38.80;;
19113;SDS011;9689;51.052;13.772;2022-12-16T20:26:28;87.13;;;36.83;;
19113;SDS011;9689;51.052;13.772;2022-12-16T20:31:46;88.07;;;38.13;;
19113;SDS011;9689;51.052;13.772;2022-12-16T20:37:04;97.18;;;37.92;;
19113;SDS011;9689;51.052;13.772;2022-12-16T20:42:24;95.43;;;37.20;;
19113;SDS011;9689;51.052;13.772;2022-12-16T20:47:43;91.35;;;38.40;;
19113;SDS011;9689;51.052;13.772;2022-12-16T20:53:01;93.13;;;39.53;;
19113;SDS011;9689;51.052;13.772;2022-12-16T20:58:21;93.13;;;38.22;;
19113;SDS011;9689;51.052;13.772;2022-12-16T21:03:39;94.20;;;37.97;;
19113;SDS011;9689;51.052;13.772;2022-12-16T21:08:57;101.07;;;38.72;;
19113;SDS011;9689;51.052;13.772;2022-12-16T21:14:17;93.35;;;37.67;;
19113;SDS011;9689;51.052;13.772;2022-12-16T21:19:35;103.97;;;39.47;;
19113;SDS011;9689;51.052;13.772;2022-12-16T21:25:14;93.35;;;37.00;;
19113;SDS011;9689;51.052;13.772;2022-12-16T21:30:33;92.85;;;37.38;;
19113;SDS011;9689;51.052;13.772;2022-12-16T21:35:51;94.45;;;36.03;;
19113;SDS011;9689;51.052;13.772;2022-12-16T21:41:10;90.05;;;37.42;;
19113;SDS011;9689;51.052;13.772;2022-12-16T21:46:30;98.63;;;38.60;;
19113;SDS011;9689;51.052;13.772;2022-12-16T21:51:48;91.47;;;37.38;;
19113;SDS011;9689;51.052;13.772;2022-12-16T21:57:07;98.45;;;38.60;;
19113;SDS011;9689;51.052;13.772;2022-12-16T22:02:27;102.13;;;38.25;;
19113;SDS011;9689;51.052;13.772;2022-12-16T22:07:45;90.25;;;36.72;;
19113;SDS011;9689;51.052;13.772;2022-12-16T22:13:06;96.55;;;37.80;;
19113;SDS011;9689;51.052;13.772;2022-12-16T22:18:26;92.13;;;36.78;;
19113;SDS011;9689;51.052;13.772;2022-12-16T22:23:44;84.60;;;35.38;;
19113;SDS011;9689;51.052;13.772;2022-12-16T22:29:02;90.82;;;38.50;;
19113;SDS011;9689;51.052;13.772;2022-12-16T22:34:23;93.65;;;36.75;;
19113;SDS011;9689;51.052;13.772;2022-12-16T22:39:41;86.55;;;35.33;;
19113;SDS011;9689;51.052;13.772;2022-12-16T22:44:59;93.65;;;35.65;;
19113;SDS011;9689;51.052;13.772;2022-12-16T22:50:18;86.28;;;36.38;;
19113;SDS011;9689;51.052;13.772;2022-12-16T22:55:37;87.30;;;36.10;;
19113;SDS011;9689;51.052;13.772;2022-12-16T23:01:00;93.18;;;36.65;;
19113;SDS011;9689;51.052;13.772;2022-12-16T23:06:20;90.63;;;34.85;;
19113;SDS011;9689;51.052;13.772;2022-12-16T23:11:39;79.25;;;33.90;;
19113;SDS011;9689;51.052;13.772;2022-12-16T23:16:58;86.60;;;34.60;;
19113;SDS011;9689;51.052;13.772;2022-12-16T23:22:17;83.50;;;32.10;;
19113;SDS011;9689;51.052;13.772;2022-12-16T23:27:35;86.15;;;33.78;;
19113;SDS011;9689;51.052;13.772;2022-12-16T23:32:55;84.40;;;33.75;;
19113;SDS011;9689;51.052;13.772;2022-12-16T23:38:16;80.15;;;35.03;;
19113;SDS011;9689;51.052;13.772;2022-12-16T23:43:34;84.22;;;32.42;;
19113;SDS011;9689;51.052;13.772;2022-12-16T23:48:54;75.18;;;31.27;;
19113;SDS011;9689;51.052;13.772;2022-12-16T23:54:14;75.60;;;32.53;;
19113;SDS011;9689;51.052;13.772;2022-12-16T23:59:32;81.25;;;34.55;;
